createdAt,value
2019-01-09T00:00:50.954Z,53.90
2019-01-09T00:03:19.720Z,53.90
2019-01-09T00:05:48.480Z,53.70
2019-01-09T00:08:17.330Z,53.90
2019-01-09T00:10:46.256Z,53.90
2019-01-09T00:13:15.098Z,54.00
2019-01-09T00:15:43.840Z,54.10
2019-01-09T00:18:12.084Z,54.00
2019-01-09T00:20:40.936Z,54.00
2019-01-09T00:23:09.719Z,54.00
2019-01-09T00:25:38.511Z,53.80
2019-01-09T00:28:07.264Z,53.90
2019-01-09T00:30:36.042Z,54.00
2019-01-09T00:33:04.801Z,54.10
2019-01-09T00:35:37.484Z,54.00
2019-01-09T00:38:04.044Z,54.10
2019-01-09T00:40:32.785Z,54.00
2019-01-09T00:43:01.548Z,54.00
2019-01-09T00:45:30.298Z,54.10
2019-01-09T00:47:59.164Z,53.90
2019-01-09T00:50:27.906Z,54.00
2019-01-09T00:52:56.692Z,53.90
2019-01-09T00:55:25.418Z,53.80
2019-01-09T00:57:54.191Z,53.90
2019-01-09T01:00:22.938Z,53.90
2019-01-09T01:03:28.734Z,53.90
2019-01-09T01:06:26.462Z,53.90
2019-01-09T01:09:45.344Z,53.60
2019-01-09T01:12:49.672Z,53.80
2019-01-09T01:16:11.654Z,54.50
2019-01-09T01:18:54.150Z,54.10
2019-01-09T01:21:33.122Z,53.90
2019-01-09T01:24:39.124Z,54.10
2019-01-09T01:27:42.686Z,54.00
2019-01-09T01:30:41.000Z,53.80
2019-01-09T01:33:39.282Z,53.80
2019-01-09T01:36:33.267Z,53.70
2019-01-09T01:39:54.022Z,53.80
2019-01-09T01:43:03.076Z,53.90
2019-01-09T01:46:07.245Z,54.00
2019-01-09T01:48:53.213Z,53.80
2019-01-09T01:52:21.260Z,53.70
2019-01-09T01:55:21.623Z,53.80
2019-01-09T01:58:29.576Z,53.90
2019-01-09T02:01:40.626Z,53.90
2019-01-09T02:04:59.917Z,54.00
2019-01-09T02:07:50.167Z,54.00
2019-01-09T02:10:50.831Z,53.80
2019-01-09T02:13:40.918Z,53.90
2019-01-09T02:17:06.142Z,53.70
2019-01-09T02:20:12.151Z,53.80
2019-01-09T02:23:02.232Z,53.90
2019-01-09T02:26:01.967Z,53.90
2019-01-09T02:29:11.728Z,53.90
2019-01-09T02:32:21.854Z,53.70
2019-01-09T02:34:50.601Z,53.70
2019-01-09T02:37:19.349Z,53.90
2019-01-09T02:39:48.088Z,53.90
2019-01-09T02:42:16.840Z,53.90
2019-01-09T02:44:45.624Z,53.90
2019-01-09T02:47:14.444Z,53.90
2019-01-09T02:49:43.242Z,53.90
2019-01-09T02:52:11.991Z,53.70
2019-01-09T02:54:40.822Z,53.80
2019-01-09T02:57:09.607Z,53.80
2019-01-09T02:59:38.440Z,53.50
2019-01-09T03:02:07.179Z,53.60
2019-01-09T03:04:35.933Z,53.70
2019-01-09T03:07:04.803Z,53.70
2019-01-09T03:09:33.602Z,53.70
2019-01-09T03:12:02.376Z,53.50
2019-01-09T03:14:31.211Z,53.60
2019-01-09T03:16:59.993Z,53.70
2019-01-09T03:19:28.739Z,53.80
2019-01-09T03:21:57.579Z,53.80
2019-01-09T03:24:26.330Z,53.80
2019-01-09T03:26:55.075Z,53.80
2019-01-09T03:29:23.824Z,53.80
2019-01-09T03:31:52.613Z,53.60
2019-01-09T03:34:21.439Z,53.70
2019-01-09T03:36:50.266Z,53.70
2019-01-09T03:39:19.139Z,53.40
2019-01-09T03:41:47.930Z,53.60
2019-01-09T03:44:16.790Z,53.70
2019-01-09T03:46:45.525Z,53.70
2019-01-09T03:49:14.263Z,53.70
2019-01-09T03:51:43.011Z,53.70
2019-01-09T03:54:11.839Z,53.50
2019-01-09T03:56:40.604Z,53.70
2019-01-09T03:59:09.344Z,53.80
2019-01-09T04:01:38.101Z,53.80
2019-01-09T04:04:06.846Z,53.80
2019-01-09T04:06:41.811Z,53.80
2019-01-09T04:09:06.056Z,53.80
2019-01-09T04:11:34.799Z,53.90
2019-01-09T04:14:03.575Z,53.70
2019-01-09T04:16:32.383Z,53.70
2019-01-09T04:19:01.163Z,53.70
2019-01-09T04:21:29.907Z,53.50
2019-01-09T04:23:58.684Z,53.60
2019-01-09T04:26:27.446Z,53.70
2019-01-09T04:28:56.294Z,53.80
2019-01-09T04:31:25.178Z,53.80
2019-01-09T04:33:53.919Z,53.80
2019-01-09T04:36:22.667Z,53.50
2019-01-09T04:38:51.434Z,53.70
2019-01-09T04:41:20.203Z,53.80
2019-01-09T04:43:48.972Z,53.90
2019-01-09T04:46:17.751Z,53.90
2019-01-09T04:48:46.635Z,53.90
2019-01-09T04:51:15.463Z,53.90
2019-01-09T04:53:44.227Z,54.00
2019-01-09T04:56:12.987Z,53.90
2019-01-09T04:58:41.738Z,54.00
2019-01-09T05:01:10.549Z,54.10
2019-01-09T05:03:39.473Z,54.00
2019-01-09T05:06:08.230Z,53.80
2019-01-09T05:08:37.019Z,53.90
2019-01-09T05:11:05.838Z,53.90
2019-01-09T05:13:34.598Z,53.90
2019-01-09T05:16:03.355Z,53.90
2019-01-09T05:18:32.101Z,53.70
2019-01-09T05:21:00.895Z,53.80
2019-01-09T05:23:29.630Z,53.90
2019-01-09T05:25:58.393Z,54.00
2019-01-09T05:28:27.145Z,53.90
2019-01-09T05:30:55.902Z,53.80
2019-01-09T05:33:24.647Z,53.90
2019-01-09T05:35:53.417Z,53.80
2019-01-09T05:38:22.277Z,53.80
2019-01-09T05:40:51.121Z,53.80
2019-01-09T05:43:19.897Z,53.90
2019-01-09T05:45:48.647Z,53.70
2019-01-09T05:48:17.435Z,53.70
2019-01-09T05:50:46.209Z,53.80
2019-01-09T05:53:15.120Z,53.80
2019-01-09T05:55:43.867Z,53.80
2019-01-09T05:58:12.611Z,53.80
2019-01-09T06:00:41.444Z,53.70
2019-01-09T06:03:10.201Z,53.80
2019-01-09T06:05:38.983Z,53.90
2019-01-09T06:08:07.721Z,53.90
2019-01-09T06:10:36.486Z,54.00
2019-01-09T06:13:05.229Z,54.00
2019-01-09T06:15:33.995Z,53.90
2019-01-09T06:18:02.810Z,54.00
2019-01-09T06:20:31.636Z,53.80
2019-01-09T06:23:00.424Z,53.80
2019-01-09T06:25:29.455Z,53.80
2019-01-09T06:27:58.221Z,53.60
2019-01-09T06:30:26.973Z,53.70
2019-01-09T06:32:55.740Z,53.80
2019-01-09T06:35:24.503Z,53.80
2019-01-09T06:37:53.264Z,53.80
2019-01-09T06:40:22.015Z,53.70
2019-01-09T06:42:50.759Z,53.60
2019-01-09T06:45:19.512Z,53.70
2019-01-09T06:47:48.261Z,53.80
2019-01-09T06:50:19.171Z,53.80
2019-01-09T06:52:47.995Z,53.80
2019-01-09T06:55:16.799Z,53.80
2019-01-09T06:57:45.612Z,53.80
2019-01-09T07:00:14.370Z,53.80
2019-01-09T07:02:43.205Z,53.70
2019-01-09T07:05:12.123Z,53.70
2019-01-09T07:07:40.904Z,53.70
2019-01-09T07:10:09.651Z,53.50
2019-01-09T07:12:38.594Z,53.70
2019-01-09T07:15:11.838Z,53.70
2019-01-09T07:17:38.092Z,53.70
2019-01-09T07:20:06.838Z,53.70
2019-01-09T07:22:35.599Z,53.60
2019-01-09T07:25:04.423Z,53.50
2019-01-09T07:27:33.179Z,53.70
2019-01-09T07:30:01.944Z,53.70
2019-01-09T07:32:30.700Z,53.80
2019-01-09T07:34:59.579Z,53.80
2019-01-09T07:37:28.402Z,53.90
2019-01-09T07:39:57.182Z,53.90
2019-01-09T07:42:25.949Z,53.80
2019-01-09T07:44:54.675Z,53.70
2019-01-09T07:47:23.443Z,53.80
2019-01-09T07:49:52.219Z,53.70
2019-01-09T07:52:20.975Z,53.60
2019-01-09T07:54:49.744Z,53.70
2019-01-09T07:57:18.492Z,53.80
2019-01-09T07:59:47.244Z,53.70
2019-01-09T08:02:15.995Z,53.60
2019-01-09T08:04:44.729Z,53.50
2019-01-09T08:07:13.511Z,53.50
2019-01-09T08:09:42.268Z,53.60
2019-01-09T08:12:11.014Z,53.50
2019-01-09T08:14:39.774Z,53.60
2019-01-09T08:17:08.863Z,53.60
2019-01-09T08:19:37.646Z,53.60
2019-01-09T08:22:06.432Z,53.60
2019-01-09T08:24:35.261Z,53.50
2019-01-09T08:27:04.194Z,53.50
2019-01-09T08:29:32.944Z,53.40
2019-01-09T08:32:01.707Z,53.30
2019-01-09T08:34:30.458Z,53.30
2019-01-09T08:36:59.254Z,53.50
2019-01-09T08:39:28.004Z,53.50
2019-01-09T08:41:57.152Z,53.60
2019-01-09T08:44:25.890Z,53.50
2019-01-09T08:46:54.662Z,53.40
2019-01-09T08:49:23.456Z,53.40
2019-01-09T08:51:52.486Z,53.50
2019-01-09T08:54:21.236Z,53.60
2019-01-09T08:56:49.995Z,53.50
2019-01-09T08:59:18.743Z,53.70
2019-01-09T09:01:47.490Z,53.60
2019-01-09T09:04:16.260Z,54.20
2019-01-09T09:06:45.370Z,53.50
2019-01-09T09:09:14.182Z,53.50
2019-01-09T09:11:42.948Z,53.60
2019-01-09T09:14:11.706Z,53.40
2019-01-09T09:16:40.472Z,53.50
2019-01-09T09:19:09.243Z,53.60
2019-01-09T09:21:37.974Z,53.60
2019-01-09T09:24:06.740Z,53.50
2019-01-09T09:26:35.543Z,53.60
2019-01-09T09:29:04.378Z,53.30
2019-01-09T09:31:33.313Z,53.50
2019-01-09T09:34:02.065Z,53.60
2019-01-09T09:36:30.836Z,53.70
2019-01-09T09:38:59.600Z,53.70
2019-01-09T09:41:28.347Z,53.60
2019-01-09T09:43:57.096Z,53.60
2019-01-09T09:46:25.853Z,53.70
2019-01-09T09:48:54.686Z,53.50
2019-01-09T09:51:23.508Z,53.60
2019-01-09T09:53:52.300Z,53.50
2019-01-09T09:56:21.028Z,53.40
2019-01-09T09:58:49.869Z,53.50
2019-01-09T10:01:18.614Z,53.60
2019-01-09T10:03:47.369Z,53.60
2019-01-09T10:06:16.166Z,53.60
2019-01-09T10:08:45.012Z,53.60
2019-01-09T10:11:13.768Z,53.40
2019-01-09T10:13:42.496Z,53.60
2019-01-09T10:16:11.246Z,53.60
2019-01-09T10:18:40.021Z,53.70
2019-01-09T10:21:08.776Z,53.60
2019-01-09T10:23:37.578Z,53.60
2019-01-09T10:26:06.416Z,53.70
2019-01-09T10:28:35.214Z,53.60
2019-01-09T10:31:04.202Z,53.40
2019-01-09T10:33:33.037Z,53.50
2019-01-09T10:36:01.796Z,53.50
2019-01-09T10:38:38.032Z,53.50
2019-01-09T10:41:01.036Z,53.60
2019-01-09T10:43:29.822Z,53.60
2019-01-09T10:45:58.592Z,53.70
2019-01-09T10:48:29.618Z,53.70
2019-01-09T10:50:58.411Z,53.60
2019-01-09T10:53:27.136Z,53.50
2019-01-09T10:55:55.896Z,53.70
2019-01-09T10:58:24.718Z,53.70
2019-01-09T11:00:53.565Z,53.70
2019-01-09T11:03:22.388Z,53.70
2019-01-09T11:05:51.237Z,53.80
2019-01-09T11:08:20.008Z,53.80
2019-01-09T11:10:48.762Z,53.70
2019-01-09T11:13:17.628Z,53.60
2019-01-09T11:15:46.389Z,53.70
2019-01-09T11:18:15.224Z,53.70
2019-01-09T11:20:44.002Z,53.70
2019-01-09T11:23:12.750Z,53.80
2019-01-09T11:25:41.511Z,53.70
2019-01-09T11:28:10.226Z,53.70
2019-01-09T11:30:39.048Z,53.70
2019-01-09T11:33:07.796Z,53.50
2019-01-09T11:35:36.546Z,53.70
2019-01-09T11:38:05.310Z,53.70
2019-01-09T11:40:34.052Z,53.50
2019-01-09T11:43:03.803Z,53.60
2019-01-09T11:45:32.624Z,53.60
2019-01-09T11:48:01.375Z,53.70
2019-01-09T11:50:30.135Z,53.80
2019-01-09T11:52:58.901Z,53.70
2019-01-09T11:55:27.720Z,53.50
2019-01-09T11:57:56.454Z,53.70
2019-01-09T12:00:26.975Z,53.70
2019-01-09T12:02:55.723Z,53.70
2019-01-09T12:05:24.465Z,53.70
2019-01-09T12:07:53.235Z,53.80
2019-01-09T12:10:30.066Z,53.70
2019-01-09T12:12:53.513Z,53.70
2019-01-09T12:15:22.286Z,53.50
2019-01-09T12:17:51.030Z,53.60
2019-01-09T12:20:19.988Z,53.80
2019-01-09T12:22:48.844Z,53.80
2019-01-09T12:25:17.578Z,53.90
2019-01-09T12:27:46.358Z,53.80
2019-01-09T12:30:33.362Z,53.80
2019-01-09T12:33:02.127Z,53.80
2019-01-09T12:35:30.971Z,53.70
2019-01-09T12:37:59.739Z,53.70
2019-01-09T12:40:28.567Z,53.70
2019-01-09T12:42:57.303Z,53.60
2019-01-09T12:45:26.124Z,53.40
2019-01-09T12:47:54.970Z,53.70
2019-01-09T12:50:25.171Z,53.70
2019-01-09T12:52:54.174Z,53.70
2019-01-09T12:55:23.100Z,53.60
2019-01-09T12:57:51.944Z,53.40
2019-01-09T13:00:28.022Z,53.60
2019-01-09T13:02:56.934Z,53.60
2019-01-09T13:05:25.682Z,53.70
2019-01-09T13:07:54.501Z,53.70
2019-01-09T13:10:23.333Z,53.70
2019-01-09T13:12:53.229Z,53.70
2019-01-09T13:15:22.116Z,53.70
2019-01-09T13:17:50.971Z,53.60
2019-01-09T13:20:19.808Z,53.50
2019-01-09T13:22:48.709Z,53.40
2019-01-09T13:25:17.479Z,53.40
2019-01-09T13:27:46.288Z,53.60
2019-01-09T13:30:17.457Z,53.60
2019-01-09T13:32:46.261Z,53.60
2019-01-09T13:35:17.043Z,53.60
2019-01-09T13:37:45.703Z,53.40
2019-01-09T13:40:19.131Z,53.60
2019-01-09T13:42:48.009Z,53.60
2019-01-09T13:45:18.720Z,53.60
2019-01-09T13:47:47.668Z,53.60
2019-01-09T13:50:16.735Z,53.60
2019-01-09T13:52:45.598Z,53.60
2019-01-09T13:55:14.821Z,53.70
2019-01-09T13:57:43.617Z,53.40
2019-01-09T14:00:20.635Z,53.40
2019-01-09T14:02:49.430Z,53.40
2019-01-09T14:05:18.715Z,53.30
2019-01-09T14:07:47.477Z,53.40
2019-01-09T14:10:24.215Z,53.60
2019-01-09T14:12:53.041Z,53.60
2019-01-09T14:15:21.885Z,53.50
2019-01-09T14:17:50.747Z,53.50
2019-01-09T14:20:19.892Z,53.40
2019-01-09T14:22:48.763Z,53.60
2019-01-09T14:25:17.577Z,53.50
2019-01-09T14:27:46.529Z,53.70
2019-01-09T14:30:17.953Z,53.60
2019-01-09T14:32:46.985Z,53.50
2019-01-09T14:35:15.789Z,53.50
2019-01-09T14:37:44.590Z,53.40
2019-01-09T14:40:14.264Z,53.50
2019-01-09T14:42:43.071Z,53.60
2019-01-09T14:45:12.330Z,53.60
2019-01-09T14:47:41.299Z,53.60
2019-01-09T14:50:15.767Z,53.50
2019-01-09T14:52:44.581Z,53.70
2019-01-09T14:55:13.377Z,53.60
2019-01-09T14:57:42.156Z,53.60
2019-01-09T15:00:17.173Z,53.40
2019-01-09T15:02:45.955Z,53.50
2019-01-09T15:05:14.881Z,53.50
2019-01-09T15:07:43.679Z,53.20
2019-01-09T15:10:15.402Z,53.40
2019-01-09T15:12:44.322Z,53.50
2019-01-09T15:15:14.085Z,53.50
2019-01-09T15:17:42.949Z,53.50
2019-01-09T15:20:13.459Z,53.30
2019-01-09T15:22:42.231Z,53.40
2019-01-09T15:25:11.316Z,53.50
2019-01-09T15:27:40.075Z,53.60
2019-01-09T15:30:12.501Z,53.50
2019-01-09T15:32:43.016Z,53.60
2019-01-09T15:35:12.269Z,53.60
2019-01-09T15:37:41.003Z,53.50
2019-01-09T15:40:15.573Z,53.30
2019-01-09T15:42:44.341Z,53.10
2019-01-09T15:45:13.213Z,53.40
2019-01-09T15:47:41.983Z,53.40
2019-01-09T15:50:13.239Z,53.40
2019-01-09T15:52:42.028Z,53.60
2019-01-09T15:55:12.321Z,53.50
2019-01-09T15:57:41.160Z,53.50
2019-01-09T16:00:24.141Z,53.50
2019-01-09T16:02:52.951Z,53.40
2019-01-09T16:05:21.746Z,53.40
2019-01-09T16:07:50.588Z,53.40
2019-01-09T16:10:19.635Z,53.30
2019-01-09T16:12:48.403Z,53.40
2019-01-09T16:15:18.162Z,53.40
2019-01-09T16:17:46.956Z,53.40
2019-01-09T16:20:17.450Z,53.30
2019-01-09T16:22:46.332Z,53.20
2019-01-09T16:25:15.279Z,53.30
2019-01-09T16:27:44.068Z,53.40
2019-01-09T16:30:16.667Z,53.40
2019-01-09T16:32:45.625Z,53.40
2019-01-09T16:35:14.492Z,53.50
2019-01-09T16:37:43.265Z,53.40
2019-01-09T16:40:12.067Z,53.40
2019-01-09T16:42:40.956Z,53.40
2019-01-09T16:45:10.348Z,53.30
2019-01-09T16:47:39.209Z,53.40
2019-01-09T16:50:10.758Z,53.30
2019-01-09T16:52:39.540Z,53.30
2019-01-09T16:55:08.534Z,54.10
2019-01-09T16:57:37.484Z,53.50
2019-01-09T17:00:10.712Z,53.40
2019-01-09T17:02:41.209Z,53.40
2019-01-09T17:05:10.648Z,53.30
2019-01-09T17:07:39.526Z,53.30
2019-01-09T17:10:09.402Z,53.40
2019-01-09T17:12:38.391Z,53.40
2019-01-09T17:15:08.335Z,53.30
2019-01-09T17:17:37.217Z,53.40
2019-01-09T17:20:08.670Z,53.40
2019-01-09T17:22:37.521Z,53.40
2019-01-09T17:25:06.629Z,53.30
2019-01-09T17:27:35.591Z,53.10
2019-01-09T17:30:06.738Z,53.20
2019-01-09T17:32:35.554Z,53.20
2019-01-09T17:35:04.849Z,53.20
2019-01-09T17:37:33.645Z,53.30
2019-01-09T17:40:02.597Z,53.30
2019-01-09T17:42:31.426Z,53.20
2019-01-09T17:45:00.294Z,52.80
2019-01-09T17:47:29.149Z,52.80
2019-01-09T17:49:57.948Z,52.90
2019-01-09T17:52:26.844Z,53.00
2019-01-09T17:54:55.715Z,53.00
2019-01-09T17:57:25.032Z,53.00
2019-01-09T17:59:53.907Z,53.00
2019-01-09T18:02:22.821Z,53.20
2019-01-09T18:04:51.658Z,53.10
2019-01-09T18:07:20.627Z,53.10
2019-01-09T18:09:49.568Z,53.10
2019-01-09T18:12:18.554Z,53.10
2019-01-09T18:14:47.591Z,53.00
2019-01-09T18:17:16.638Z,53.00
2019-01-09T18:19:45.658Z,53.10
2019-01-09T18:22:14.651Z,53.10
2019-01-09T18:24:43.875Z,53.20
2019-01-09T18:27:12.886Z,53.00
2019-01-09T18:29:42.006Z,53.00
2019-01-09T18:32:25.864Z,53.20
2019-01-09T18:35:13.630Z,53.20
2019-01-09T18:38:16.305Z,53.20
2019-01-09T18:41:26.253Z,53.30
2019-01-09T18:44:15.493Z,53.30
2019-01-09T18:47:23.878Z,53.30
2019-01-09T18:50:29.357Z,53.10
2019-01-09T18:53:24.608Z,53.50
2019-01-09T18:55:53.611Z,53.30
2019-01-09T18:58:22.555Z,53.30
2019-01-09T19:00:51.649Z,53.30
2019-01-09T19:03:20.718Z,53.30
2019-01-09T19:05:49.965Z,53.30
2019-01-09T19:08:19.041Z,53.20
2019-01-09T19:10:48.046Z,53.20
2019-01-09T19:13:17.017Z,53.30
2019-01-09T19:15:46.165Z,53.10
2019-01-09T19:18:15.263Z,53.10
2019-01-09T19:20:44.315Z,53.30
2019-01-09T19:23:13.679Z,53.20
2019-01-09T19:25:42.876Z,53.30
2019-01-09T19:28:14.358Z,53.20
2019-01-09T19:30:43.870Z,53.10
2019-01-09T19:33:15.306Z,53.30
2019-01-09T19:35:45.406Z,53.30
2019-01-09T19:38:14.560Z,53.20
2019-01-09T19:40:43.641Z,53.20
2019-01-09T19:43:12.918Z,53.20
2019-01-09T19:45:41.920Z,53.20
2019-01-09T19:48:11.032Z,53.20
2019-01-09T19:50:42.675Z,53.20
2019-01-09T19:53:10.987Z,53.20
2019-01-09T19:55:40.136Z,53.10
2019-01-09T19:58:09.094Z,53.20
2019-01-09T20:00:38.172Z,53.20
2019-01-09T20:03:09.542Z,53.20
2019-01-09T20:05:40.694Z,53.20
2019-01-09T20:08:10.024Z,53.20
2019-01-09T20:10:40.746Z,53.10
2019-01-09T20:13:10.210Z,53.30
2019-01-09T20:15:39.381Z,53.30
2019-01-09T20:18:08.480Z,53.30
2019-01-09T20:20:37.604Z,53.30
2019-01-09T20:23:06.741Z,53.30
2019-01-09T20:25:35.946Z,53.30
2019-01-09T20:28:05.096Z,53.30
2019-01-09T20:30:34.158Z,53.30
2019-01-09T20:33:03.328Z,53.30
2019-01-09T20:35:32.896Z,53.20
2019-01-09T20:38:02.256Z,53.20
2019-01-09T20:40:33.150Z,53.30
2019-01-09T20:43:02.350Z,53.30
2019-01-09T20:45:32.819Z,53.20
2019-01-09T20:48:02.655Z,53.30
2019-01-09T20:50:33.204Z,53.30
2019-01-09T20:53:02.463Z,53.40
2019-01-09T20:55:33.260Z,53.50
2019-01-09T20:58:03.195Z,53.60
2019-01-09T21:00:33.154Z,53.60
2019-01-09T21:03:07.640Z,53.60
2019-01-09T21:05:42.940Z,53.50
2019-01-09T21:08:12.557Z,53.70
2019-01-09T21:10:41.690Z,53.60
2019-01-09T21:13:11.001Z,53.50
2019-01-09T21:15:40.120Z,53.60
2019-01-09T21:18:09.256Z,53.50
2019-01-09T21:20:38.970Z,53.40
2019-01-09T21:23:08.057Z,53.60
2019-01-09T21:25:37.128Z,53.60
2019-01-09T21:28:07.447Z,53.50
2019-01-09T21:30:37.011Z,53.70
2019-01-09T21:33:06.553Z,53.50
2019-01-09T21:35:35.639Z,53.60
2019-01-09T21:38:04.617Z,53.70
2019-01-09T21:40:33.604Z,53.70
2019-01-09T21:43:02.587Z,53.70
2019-01-09T21:45:32.008Z,53.70
2019-01-09T21:48:01.051Z,53.80
2019-01-09T21:50:30.083Z,53.80
2019-01-09T21:52:59.053Z,53.80
2019-01-09T21:55:28.042Z,53.80
2019-01-09T21:57:57.007Z,53.90
2019-01-09T22:00:26.794Z,53.90
2019-01-09T22:02:55.581Z,53.90
2019-01-09T22:05:25.865Z,53.80
2019-01-09T22:07:54.832Z,53.80
2019-01-09T22:10:32.206Z,53.80
2019-01-09T22:13:01.078Z,53.80
2019-01-09T22:15:29.900Z,53.80
2019-01-09T22:17:58.747Z,53.80
2019-01-09T22:20:27.534Z,53.80
2019-01-09T22:22:56.327Z,53.60
2019-01-09T22:25:25.134Z,53.50
2019-01-09T22:27:53.909Z,53.60
2019-01-09T22:30:24.718Z,53.50
2019-01-09T22:32:53.515Z,53.50
2019-01-09T22:35:22.264Z,53.50
2019-01-09T22:37:51.043Z,53.50
2019-01-09T22:40:21.007Z,53.70
2019-01-09T22:42:49.863Z,53.70
2019-01-09T22:45:18.634Z,53.70
2019-01-09T22:47:47.411Z,53.70
2019-01-09T22:50:18.187Z,53.80
2019-01-09T22:52:47.064Z,53.80
2019-01-09T22:55:15.837Z,53.70
2019-01-09T22:57:44.721Z,53.70
2019-01-09T23:00:45.075Z,53.80
2019-01-09T23:03:13.961Z,53.60
2019-01-09T23:05:42.999Z,53.70
2019-01-09T23:08:11.845Z,53.70
2019-01-09T23:10:40.692Z,53.60
2019-01-09T23:13:09.457Z,53.70
2019-01-09T23:15:38.217Z,53.60
2019-01-09T23:18:06.954Z,53.50
2019-01-09T23:20:35.715Z,53.70
2019-01-09T23:23:04.549Z,53.70
2019-01-09T23:25:33.309Z,53.70
2019-01-09T23:28:02.059Z,53.70
2019-01-09T23:30:30.883Z,53.70
2019-01-09T23:32:59.713Z,53.80
2019-01-09T23:35:28.463Z,53.80
2019-01-09T23:37:57.261Z,53.80
2019-01-09T23:40:25.982Z,53.80
2019-01-09T23:42:54.789Z,53.90
2019-01-09T23:45:23.623Z,53.80
2019-01-09T23:47:52.373Z,53.70
2019-01-09T23:50:21.131Z,53.90
2019-01-09T23:52:49.946Z,53.80
2019-01-09T23:55:18.721Z,53.80
2019-01-09T23:57:47.487Z,53.80
